NOO6330 RJFF-RJOC
Flight info
| Callsign | NOO6330 |
|---|---|
| Flight time | 0h 55m |
| Altitude | 25000 |
| Route | DGC V28 MARCO Y45 KYOKA V29 XZE |
| Aircraft | B350/L-SBDFGRWY/S |
Departure
| Time | 2026-04-21 00:47 |
|---|---|
| Airport | Fukuoka Airport (RJFF) |
Arrival
| Time | 2026-04-21 01:42 |
|---|---|
| Airport | Izumo Enmusubi Airport (RJOC) |
| Time | Latitude | Longitude | Altitude | Speed | Heading |
|---|---|---|---|---|---|
| 2026-04-20 23:56 | 33.58824 | 130.45261 | 38 ft | 0 kts | 59° |
| 2026-04-21 00:38 | 33.58811 | 130.45238 | 38 ft | 6 kts | 57° |
| 2026-04-21 00:38 | 33.58803 | 130.45222 | 38 ft | 0 kts | 57° |
| 2026-04-21 00:38 | 33.58810 | 130.45229 | 38 ft | 3 kts | 352° |
| 2026-04-21 00:39 | 33.58789 | 130.45195 | 38 ft | 9 kts | 221° |
| 2026-04-21 00:39 | 33.58720 | 130.45210 | 38 ft | 14 kts | 150° |
| 2026-04-21 00:39 | 33.58619 | 130.45279 | 38 ft | 19 kts | 149° |
| 2026-04-21 00:39 | 33.58495 | 130.45375 | 38 ft | 23 kts | 151° |
| 2026-04-21 00:40 | 33.58433 | 130.45406 | 38 ft | 9 kts | 150° |
| 2026-04-21 00:40 | 33.58359 | 130.45456 | 38 ft | 15 kts | 148° |
| 2026-04-21 00:40 | 33.58252 | 130.45531 | 38 ft | 20 kts | 148° |
| 2026-04-21 00:40 | 33.58205 | 130.45566 | 38 ft | 0 kts | 151° |
| 2026-04-21 00:41 | 33.58178 | 130.45583 | 38 ft | 7 kts | 154° |
| 2026-04-21 00:42 | 33.58111 | 130.45625 | 38 ft | 14 kts | 149° |
| 2026-04-21 00:42 | 33.58011 | 130.45694 | 38 ft | 19 kts | 150° |
| 2026-04-21 00:42 | 33.57883 | 130.45781 | 38 ft | 23 kts | 149° |
| 2026-04-21 00:42 | 33.57749 | 130.45874 | 38 ft | 19 kts | 149° |
| 2026-04-21 00:43 | 33.57664 | 130.45909 | 38 ft | 11 kts | 202° |
| 2026-04-21 00:43 | 33.57620 | 130.45857 | 38 ft | 0 kts | 240° |
| 2026-04-21 00:45 | 33.57620 | 130.45856 | 38 ft | 1 kts | 240° |
| 2026-04-21 00:45 | 33.57601 | 130.45816 | 38 ft | 9 kts | 239° |
| 2026-04-21 00:45 | 33.57585 | 130.45746 | 38 ft | 6 kts | 338° |
| 2026-04-21 00:45 | 33.57628 | 130.45729 | 38 ft | 0 kts | 330° |
| 2026-04-21 00:46 | 33.57684 | 130.45689 | 38 ft | 44 kts | 330° |
| 2026-04-21 00:46 | 33.58244 | 130.45305 | 72 ft | 126 kts | 331° |
| 2026-04-21 00:47 | 33.59031 | 130.44667 | 567 ft | 149 kts | 328° |
| 2026-04-21 00:47 | 33.59900 | 130.43974 | 1276 ft | 154 kts | 337° |
| 2026-04-21 00:47 | 33.60841 | 130.43237 | 1868 ft | 168 kts | 332° |
| 2026-04-21 00:47 | 33.61872 | 130.42651 | 2619 ft | 164 kts | 342° |
| 2026-04-21 00:48 | 33.62854 | 130.42075 | 3361 ft | 158 kts | 341° |
| 2026-04-21 00:48 | 33.63818 | 130.41467 | 4043 ft | 158 kts | 339° |
| 2026-04-21 00:48 | 33.64784 | 130.40839 | 4713 ft | 158 kts | 338° |
| 2026-04-21 00:48 | 33.65734 | 130.40213 | 5320 ft | 160 kts | 337° |
| 2026-04-21 00:49 | 33.66736 | 130.39766 | 5907 ft | 155 kts | 1° |
| 2026-04-21 00:49 | 33.67701 | 130.40273 | 6488 ft | 160 kts | 40° |
| 2026-04-21 00:49 | 33.68259 | 130.41489 | 7019 ft | 171 kts | 59° |
| 2026-04-21 00:49 | 33.68700 | 130.42839 | 7550 ft | 180 kts | 61° |
| 2026-04-21 00:50 | 33.69123 | 130.44252 | 8170 ft | 184 kts | 62° |
| 2026-04-21 00:50 | 33.69541 | 130.45695 | 8802 ft | 187 kts | 62° |
| 2026-04-21 00:50 | 33.69965 | 130.47179 | 9412 ft | 190 kts | 62° |
| 2026-04-21 00:50 | 33.70392 | 130.48677 | 9981 ft | 193 kts | 63° |
| 2026-04-21 00:51 | 33.70829 | 130.50214 | 10507 ft | 198 kts | 63° |
| 2026-04-21 00:51 | 33.71279 | 130.51798 | 10993 ft | 204 kts | 63° |
| 2026-04-21 00:51 | 33.71748 | 130.53450 | 11471 ft | 210 kts | 62° |
| 2026-04-21 00:51 | 33.72218 | 130.55110 | 11939 ft | 215 kts | 62° |
| 2026-04-21 00:52 | 33.72710 | 130.56847 | 12382 ft | 221 kts | 62° |
| 2026-04-21 00:52 | 33.73212 | 130.58620 | 12833 ft | 225 kts | 62° |
| 2026-04-21 00:52 | 33.73725 | 130.60425 | 13319 ft | 235 kts | 63° |
| 2026-04-21 00:52 | 33.74251 | 130.62288 | 13888 ft | 240 kts | 63° |
| 2026-04-21 00:53 | 33.74790 | 130.64197 | 14534 ft | 242 kts | 63° |
| 2026-04-21 00:53 | 33.75321 | 130.66077 | 15186 ft | 241 kts | 63° |
| 2026-04-21 00:53 | 33.75862 | 130.67993 | 15786 ft | 243 kts | 63° |
| 2026-04-21 00:53 | 33.76406 | 130.69922 | 16380 ft | 243 kts | 63° |
| 2026-04-21 00:54 | 33.76945 | 130.71832 | 16932 ft | 244 kts | 63° |
| 2026-04-21 00:54 | 33.77489 | 130.73764 | 17435 ft | 248 kts | 63° |
| 2026-04-21 00:54 | 33.78047 | 130.75746 | 17966 ft | 251 kts | 63° |
| 2026-04-21 00:54 | 33.78608 | 130.77737 | 18506 ft | 252 kts | 64° |
| 2026-04-21 00:55 | 33.79252 | 130.79642 | 19037 ft | 247 kts | 54° |
| 2026-04-21 00:55 | 33.79779 | 130.81673 | 19527 ft | 257 kts | 68° |
| 2026-04-21 00:55 | 33.80296 | 130.83701 | 20029 ft | 257 kts | 64° |
| 2026-04-21 00:55 | 33.80867 | 130.85773 | 20518 ft | 259 kts | 64° |
| 2026-04-21 00:56 | 33.81441 | 130.87822 | 21022 ft | 260 kts | 65° |
| 2026-04-21 00:56 | 33.82014 | 130.89870 | 21512 ft | 260 kts | 65° |
| 2026-04-21 00:56 | 33.82589 | 130.91928 | 21997 ft | 260 kts | 64° |
| 2026-04-21 00:56 | 33.83161 | 130.93970 | 22462 ft | 261 kts | 64° |
| 2026-04-21 00:57 | 33.83740 | 130.96036 | 22896 ft | 262 kts | 64° |
| 2026-04-21 00:57 | 33.84330 | 130.98135 | 23272 ft | 266 kts | 65° |
| 2026-04-21 00:57 | 33.84917 | 131.00238 | 23665 ft | 269 kts | 64° |
| 2026-04-21 00:57 | 33.85513 | 131.02377 | 24087 ft | 268 kts | 64° |
| 2026-04-21 00:58 | 33.86032 | 131.04536 | 24491 ft | 269 kts | 64° |
| 2026-04-21 00:58 | 33.86715 | 131.06604 | 24882 ft | 266 kts | 58° |
| 2026-04-21 00:58 | 33.87425 | 131.08701 | 25101 ft | 278 kts | 60° |
| 2026-04-21 00:58 | 33.88151 | 131.10939 | 25124 ft | 297 kts | 63° |
| 2026-04-21 00:59 | 33.88902 | 131.13315 | 25136 ft | 315 kts | 63° |
| 2026-04-21 00:59 | 33.89691 | 131.15845 | 25133 ft | 330 kts | 63° |
| 2026-04-21 00:59 | 33.90512 | 131.18483 | 25127 ft | 343 kts | 63° |
| 2026-04-21 00:59 | 33.91362 | 131.21222 | 25126 ft | 355 kts | 64° |
| 2026-04-21 01:00 | 33.92242 | 131.24057 | 25122 ft | 366 kts | 65° |
| 2026-04-21 01:00 | 33.93148 | 131.26987 | 25126 ft | 375 kts | 64° |
| 2026-04-21 01:00 | 33.93905 | 131.30013 | 25117 ft | 386 kts | 75° |
| 2026-04-21 01:00 | 33.94419 | 131.33226 | 25127 ft | 392 kts | 76° |
| 2026-04-21 01:01 | 33.94947 | 131.36430 | 25119 ft | 397 kts | 75° |
| 2026-04-21 01:01 | 33.95499 | 131.39712 | 25112 ft | 401 kts | 76° |
| 2026-04-21 01:01 | 33.96054 | 131.43012 | 25116 ft | 404 kts | 75° |
| 2026-04-21 01:01 | 33.96621 | 131.46364 | 25116 ft | 407 kts | 76° |
| 2026-04-21 01:02 | 33.97182 | 131.49693 | 25111 ft | 410 kts | 76° |
| 2026-04-21 01:02 | 33.97750 | 131.53061 | 25115 ft | 412 kts | 76° |
| 2026-04-21 01:02 | 33.98317 | 131.56442 | 25115 ft | 414 kts | 76° |
| 2026-04-21 01:02 | 33.98889 | 131.59857 | 25115 ft | 416 kts | 75° |
| 2026-04-21 01:03 | 33.99460 | 131.63264 | 25114 ft | 417 kts | 75° |
| 2026-04-21 01:03 | 34.00040 | 131.66739 | 25094 ft | 418 kts | 77° |
| 2026-04-21 01:03 | 34.00652 | 131.70131 | 25084 ft | 418 kts | 73° |
| 2026-04-21 01:03 | 34.01225 | 131.73560 | 25097 ft | 419 kts | 78° |
| 2026-04-21 01:04 | 34.01768 | 131.77029 | 25099 ft | 418 kts | 77° |
| 2026-04-21 01:04 | 34.02329 | 131.80481 | 25099 ft | 418 kts | 76° |
| 2026-04-21 01:04 | 34.02893 | 131.83894 | 25088 ft | 419 kts | 77° |
| 2026-04-21 01:04 | 34.03463 | 131.87361 | 25095 ft | 419 kts | 77° |
| 2026-04-21 01:05 | 34.04033 | 131.90817 | 25103 ft | 419 kts | 76° |
| 2026-04-21 01:05 | 34.04599 | 131.94247 | 25097 ft | 420 kts | 76° |
| 2026-04-21 01:05 | 34.05166 | 131.97699 | 25102 ft | 420 kts | 76° |
| 2026-04-21 01:05 | 34.05737 | 132.01173 | 25030 ft | 421 kts | 77° |
| 2026-04-21 01:06 | 34.06300 | 132.04616 | 24875 ft | 420 kts | 77° |
| 2026-04-21 01:06 | 34.06862 | 132.08058 | 24712 ft | 420 kts | 77° |
| 2026-04-21 01:06 | 34.07507 | 132.11469 | 24528 ft | 417 kts | 68° |
| 2026-04-21 01:06 | 34.08836 | 132.14505 | 24346 ft | 401 kts | 45° |
| 2026-04-21 01:07 | 34.10771 | 132.16763 | 24130 ft | 378 kts | 24° |
| 2026-04-21 01:07 | 34.13054 | 132.18202 | 23983 ft | 361 kts | 14° |
| 2026-04-21 01:07 | 34.15299 | 132.19534 | 23810 ft | 361 kts | 15° |
| 2026-04-21 01:07 | 34.17543 | 132.20941 | 23578 ft | 362 kts | 17° |
| 2026-04-21 01:08 | 34.19761 | 132.22362 | 23364 ft | 363 kts | 17° |
| 2026-04-21 01:08 | 34.21989 | 132.23798 | 23149 ft | 363 kts | 17° |
| 2026-04-21 01:08 | 34.24216 | 132.25241 | 22855 ft | 363 kts | 17° |
| 2026-04-21 01:08 | 34.26465 | 132.26698 | 22501 ft | 362 kts | 17° |
| 2026-04-21 01:09 | 34.28664 | 132.28125 | 22148 ft | 357 kts | 17° |
| 2026-04-21 01:09 | 34.30867 | 132.29556 | 21776 ft | 351 kts | 17° |
| 2026-04-21 01:09 | 34.32994 | 132.30939 | 21421 ft | 345 kts | 16° |
| 2026-04-21 01:09 | 34.35083 | 132.32297 | 21071 ft | 340 kts | 16° |
| 2026-04-21 01:10 | 34.37170 | 132.33650 | 20704 ft | 337 kts | 16° |
| 2026-04-21 01:10 | 34.39215 | 132.34981 | 20361 ft | 336 kts | 16° |
| 2026-04-21 01:10 | 34.41288 | 132.36327 | 20029 ft | 334 kts | 16° |
| 2026-04-21 01:10 | 34.43332 | 132.37651 | 19689 ft | 333 kts | 15° |
| 2026-04-21 01:11 | 34.45388 | 132.38983 | 19341 ft | 332 kts | 15° |
| 2026-04-21 01:11 | 34.47417 | 132.40299 | 19003 ft | 331 kts | 16° |
| 2026-04-21 01:11 | 34.49455 | 132.41621 | 18664 ft | 330 kts | 15° |
| 2026-04-21 01:11 | 34.51492 | 132.42943 | 18317 ft | 328 kts | 16° |
| 2026-04-21 01:12 | 34.53508 | 132.44252 | 17965 ft | 328 kts | 16° |
| 2026-04-21 01:12 | 34.55521 | 132.45558 | 17643 ft | 327 kts | 16° |
| 2026-04-21 01:12 | 34.57532 | 132.46866 | 17297 ft | 326 kts | 16° |
| 2026-04-21 01:12 | 34.59523 | 132.48161 | 16969 ft | 325 kts | 17° |
| 2026-04-21 01:13 | 34.61536 | 132.49472 | 16636 ft | 324 kts | 17° |
| 2026-04-21 01:13 | 34.63508 | 132.50755 | 16295 ft | 323 kts | 17° |
| 2026-04-21 01:13 | 34.65496 | 132.52051 | 15968 ft | 321 kts | 18° |
| 2026-04-21 01:13 | 34.67471 | 132.53339 | 15624 ft | 319 kts | 18° |
| 2026-04-21 01:14 | 34.69427 | 132.54613 | 15270 ft | 318 kts | 18° |
| 2026-04-21 01:14 | 34.71370 | 132.55882 | 14941 ft | 315 kts | 19° |
| 2026-04-21 01:14 | 34.73318 | 132.57153 | 14588 ft | 314 kts | 19° |
| 2026-04-21 01:14 | 34.75241 | 132.58411 | 14238 ft | 312 kts | 19° |
| 2026-04-21 01:15 | 34.77149 | 132.59657 | 13886 ft | 310 kts | 19° |
| 2026-04-21 01:15 | 34.79043 | 132.60895 | 13533 ft | 308 kts | 20° |
| 2026-04-21 01:15 | 34.80925 | 132.62128 | 13163 ft | 306 kts | 20° |
| 2026-04-21 01:15 | 34.82799 | 132.63354 | 12808 ft | 304 kts | 20° |
| 2026-04-21 01:16 | 34.84665 | 132.64577 | 12439 ft | 301 kts | 20° |
| 2026-04-21 01:16 | 34.86476 | 132.65765 | 12053 ft | 293 kts | 21° |
| 2026-04-21 01:16 | 34.88267 | 132.66939 | 11681 ft | 289 kts | 21° |
| 2026-04-21 01:16 | 34.90040 | 132.68102 | 11376 ft | 289 kts | 21° |
| 2026-04-21 01:17 | 34.91800 | 132.69255 | 11137 ft | 288 kts | 21° |
| 2026-04-21 01:17 | 34.93574 | 132.70422 | 10968 ft | 284 kts | 21° |
| 2026-04-21 01:17 | 34.95311 | 132.71564 | 10810 ft | 281 kts | 21° |
| 2026-04-21 01:17 | 34.97015 | 132.72685 | 10670 ft | 278 kts | 21° |
| 2026-04-21 01:18 | 34.98735 | 132.73817 | 10498 ft | 277 kts | 21° |
| 2026-04-21 01:18 | 35.00442 | 132.74901 | 10324 ft | 273 kts | 18° |
| 2026-04-21 01:18 | 35.02131 | 132.76019 | 10112 ft | 276 kts | 22° |
| 2026-04-21 01:18 | 35.03798 | 132.77142 | 9965 ft | 273 kts | 21° |
| 2026-04-21 01:19 | 35.05483 | 132.78256 | 9780 ft | 272 kts | 21° |
| 2026-04-21 01:19 | 35.07153 | 132.79358 | 9598 ft | 272 kts | 21° |
| 2026-04-21 01:19 | 35.08808 | 132.80449 | 9473 ft | 269 kts | 21° |
| 2026-04-21 01:19 | 35.10470 | 132.81546 | 9326 ft | 267 kts | 22° |
| 2026-04-21 01:20 | 35.12115 | 132.82631 | 9184 ft | 266 kts | 21° |
| 2026-04-21 01:20 | 35.13741 | 132.83704 | 9039 ft | 266 kts | 21° |
| 2026-04-21 01:20 | 35.15369 | 132.84779 | 8912 ft | 264 kts | 22° |
| 2026-04-21 01:20 | 35.16978 | 132.85841 | 8805 ft | 262 kts | 22° |
| 2026-04-21 01:21 | 35.18648 | 132.86585 | 8653 ft | 251 kts | 3° |
| 2026-04-21 01:21 | 35.20375 | 132.86777 | 8546 ft | 248 kts | 0° |
| 2026-04-21 01:21 | 35.22113 | 132.86971 | 8413 ft | 248 kts | 0° |
| 2026-04-21 01:21 | 35.23809 | 132.87167 | 8211 ft | 241 kts | 0° |
| 2026-04-21 01:22 | 35.25481 | 132.87358 | 7851 ft | 238 kts | 0° |
| 2026-04-21 01:22 | 35.27105 | 132.87546 | 7382 ft | 236 kts | 1° |
| 2026-04-21 01:22 | 35.28737 | 132.87735 | 6873 ft | 228 kts | 2° |
| 2026-04-21 01:22 | 35.30272 | 132.87913 | 6339 ft | 215 kts | 2° |
| 2026-04-21 01:23 | 35.31705 | 132.88080 | 5829 ft | 204 kts | 2° |
| 2026-04-21 01:23 | 35.33114 | 132.88243 | 5302 ft | 198 kts | 3° |
| 2026-04-21 01:23 | 35.34457 | 132.88399 | 4799 ft | 193 kts | 3° |
| 2026-04-21 01:23 | 35.35800 | 132.88553 | 4297 ft | 199 kts | 3° |
| 2026-04-21 01:24 | 35.37217 | 132.88715 | 4058 ft | 205 kts | 4° |
| 2026-04-21 01:24 | 35.38625 | 132.88878 | 4035 ft | 198 kts | 4° |
| 2026-04-21 01:24 | 35.39962 | 132.89033 | 3896 ft | 187 kts | 4° |
| 2026-04-21 01:24 | 35.41253 | 132.89210 | 3554 ft | 188 kts | 11° |
| 2026-04-21 01:25 | 35.42381 | 132.90074 | 3124 ft | 198 kts | 41° |
| 2026-04-21 01:25 | 35.43297 | 132.91296 | 3003 ft | 187 kts | 43° |
| 2026-04-21 01:25 | 35.44166 | 132.92445 | 2981 ft | 182 kts | 43° |
| 2026-04-21 01:25 | 35.45029 | 132.93582 | 2919 ft | 181 kts | 42° |
| 2026-04-21 01:26 | 35.45873 | 132.94708 | 2890 ft | 178 kts | 42° |
| 2026-04-21 01:26 | 35.46703 | 132.95825 | 2885 ft | 174 kts | 42° |
| 2026-04-21 01:26 | 35.47524 | 132.96895 | 2891 ft | 171 kts | 41° |
| 2026-04-21 01:26 | 35.48347 | 132.97963 | 2891 ft | 169 kts | 41° |
| 2026-04-21 01:27 | 35.49174 | 132.99039 | 2906 ft | 176 kts | 41° |
| 2026-04-21 01:27 | 35.50042 | 133.00166 | 2901 ft | 187 kts | 41° |
| 2026-04-21 01:27 | 35.50956 | 133.01358 | 2902 ft | 196 kts | 42° |
| 2026-04-21 01:27 | 35.51908 | 133.02605 | 2902 ft | 203 kts | 42° |
| 2026-04-21 01:28 | 35.52889 | 133.03891 | 2898 ft | 208 kts | 43° |
| 2026-04-21 01:28 | 35.53897 | 133.05215 | 2887 ft | 212 kts | 43° |
| 2026-04-21 01:28 | 35.54903 | 133.06581 | 2887 ft | 217 kts | 49° |
| 2026-04-21 01:28 | 35.55398 | 133.08357 | 2901 ft | 230 kts | 82° |
| 2026-04-21 01:29 | 35.55012 | 133.10307 | 2905 ft | 238 kts | 117° |
| 2026-04-21 01:29 | 35.53855 | 133.11708 | 2881 ft | 234 kts | 150° |
| 2026-04-21 01:29 | 35.52329 | 133.12117 | 2881 ft | 221 kts | 187° |
| 2026-04-21 01:29 | 35.50983 | 133.11470 | 2884 ft | 199 kts | 226° |
| 2026-04-21 01:30 | 35.50325 | 133.10124 | 2891 ft | 174 kts | 265° |
| 2026-04-21 01:30 | 35.50119 | 133.08684 | 2865 ft | 164 kts | 275° |
| 2026-04-21 01:30 | 35.49854 | 133.07315 | 2732 ft | 173 kts | 245° |
| 2026-04-21 01:30 | 35.49188 | 133.06087 | 2588 ft | 171 kts | 242° |
| 2026-04-21 01:31 | 35.48596 | 133.04834 | 2385 ft | 169 kts | 245° |
| 2026-04-21 01:31 | 35.48022 | 133.03561 | 2163 ft | 170 kts | 246° |
| 2026-04-21 01:31 | 35.47449 | 133.02281 | 1946 ft | 170 kts | 245° |
| 2026-04-21 01:31 | 35.46899 | 133.01044 | 1877 ft | 157 kts | 245° |
| 2026-04-21 01:32 | 35.46397 | 132.99910 | 1736 ft | 147 kts | 245° |
| 2026-04-21 01:32 | 35.45911 | 132.98807 | 1429 ft | 147 kts | 244° |
| 2026-04-21 01:32 | 35.45446 | 132.97749 | 1286 ft | 132 kts | 245° |
| 2026-04-21 01:32 | 35.45026 | 132.96808 | 1272 ft | 121 kts | 243° |
| 2026-04-21 01:33 | 35.44593 | 132.95894 | 1256 ft | 128 kts | 241° |
| 2026-04-21 01:33 | 35.44126 | 132.94960 | 1189 ft | 128 kts | 241° |
| 2026-04-21 01:33 | 35.43671 | 132.94008 | 1006 ft | 128 kts | 244° |
| 2026-04-21 01:33 | 35.43246 | 132.93037 | 800 ft | 130 kts | 245° |
| 2026-04-21 01:34 | 35.42812 | 132.92030 | 558 ft | 136 kts | 242° |
| 2026-04-21 01:34 | 35.42360 | 132.91058 | 314 ft | 127 kts | 242° |
| 2026-04-21 01:34 | 35.41899 | 132.90102 | 100 ft | 132 kts | 240° |
| 2026-04-21 01:34 | 35.41444 | 132.89156 | 63 ft | 126 kts | 238° |
| 2026-04-21 01:35 | 35.41000 | 132.88194 | 528 ft | 136 kts | 241° |
| 2026-04-21 01:35 | 35.40498 | 132.87268 | 1235 ft | 130 kts | 240° |
| 2026-04-21 01:35 | 35.39982 | 132.86264 | 1563 ft | 151 kts | 242° |
| 2026-04-21 01:35 | 35.39471 | 132.85013 | 1491 ft | 176 kts | 249° |
| 2026-04-21 01:36 | 35.38953 | 132.83592 | 1499 ft | 184 kts | 249° |
| 2026-04-21 01:36 | 35.38622 | 132.82072 | 1494 ft | 185 kts | 277° |
| 2026-04-21 01:36 | 35.39125 | 132.80678 | 1500 ft | 183 kts | 316° |
| 2026-04-21 01:36 | 35.40270 | 132.80019 | 1497 ft | 185 kts | 355° |
| 2026-04-21 01:37 | 35.41504 | 132.80441 | 1495 ft | 190 kts | 34° |
| 2026-04-21 01:37 | 35.42315 | 132.81734 | 1504 ft | 196 kts | 60° |
| 2026-04-21 01:37 | 35.42944 | 132.83235 | 1495 ft | 197 kts | 60° |
| 2026-04-21 01:37 | 35.43563 | 132.84750 | 1491 ft | 196 kts | 61° |
| 2026-04-21 01:38 | 35.44158 | 132.86252 | 1491 ft | 195 kts | 62° |
| 2026-04-21 01:38 | 35.44751 | 132.87743 | 1487 ft | 194 kts | 62° |
| 2026-04-21 01:38 | 35.45350 | 132.89238 | 1484 ft | 194 kts | 62° |
| 2026-04-21 01:38 | 35.45942 | 132.90715 | 1488 ft | 193 kts | 61° |
| 2026-04-21 01:39 | 35.46514 | 132.92145 | 1478 ft | 179 kts | 62° |
| 2026-04-21 01:39 | 35.47026 | 132.93445 | 1464 ft | 158 kts | 62° |
| 2026-04-21 01:39 | 35.47309 | 132.94684 | 1501 ft | 157 kts | 90° |
| 2026-04-21 01:39 | 35.46847 | 132.95940 | 1503 ft | 170 kts | 133° |
| 2026-04-21 01:40 | 35.45851 | 132.96690 | 1496 ft | 167 kts | 152° |
| 2026-04-21 01:40 | 35.44734 | 132.96811 | 1218 ft | 159 kts | 202° |
| 2026-04-21 01:40 | 35.44048 | 132.95908 | 885 ft | 145 kts | 251° |
| 2026-04-21 01:40 | 35.43740 | 132.94763 | 737 ft | 132 kts | 255° |
| 2026-04-21 01:41 | 35.43474 | 132.93665 | 614 ft | 134 kts | 253° |
| 2026-04-21 01:41 | 35.43094 | 132.92644 | 490 ft | 134 kts | 244° |
| 2026-04-21 01:41 | 35.42632 | 132.91649 | 402 ft | 129 kts | 239° |
| 2026-04-21 01:41 | 35.42167 | 132.90671 | 183 ft | 136 kts | 241° |
| 2026-04-21 01:42 | 35.41688 | 132.89667 | 17 ft | 138 kts | 239° |
| 2026-04-21 01:42 | 35.41282 | 132.88806 | -4 ft | 84 kts | 238° |
| 2026-04-21 01:42 | 35.41082 | 132.88394 | 0 ft | 32 kts | 240° |
| 2026-04-21 01:42 | 35.40987 | 132.88205 | -2 ft | 10 kts | 240° |
| 2026-04-21 01:43 | 35.40958 | 132.88136 | -2 ft | 11 kts | 38° |
| 2026-04-21 01:43 | 35.41003 | 132.88234 | -1 ft | 15 kts | 60° |
| 2026-04-21 01:43 | 35.41065 | 132.88365 | 0 ft | 19 kts | 60° |
| 2026-04-21 01:43 | 35.41142 | 132.88527 | 0 ft | 24 kts | 58° |
| 2026-04-21 01:44 | 35.41238 | 132.88701 | -3 ft | 15 kts | 5° |
| 2026-04-21 01:44 | 35.41302 | 132.88669 | -2 ft | 1 kts | 328° |
| 2026-04-21 01:44 | 35.41336 | 132.88661 | -1 ft | 8 kts | 19° |
| 2026-04-21 01:44 | 35.41388 | 132.88737 | -1 ft | 15 kts | 60° |
| 2026-04-21 01:45 | 35.41424 | 132.88814 | -2 ft | 2 kts | 60° |
| 2026-04-21 01:45 | 35.41450 | 132.88817 | -2 ft | 8 kts | 317° |
| 2026-04-21 01:45 | 35.41488 | 132.88789 | -1 ft | 1 kts | 0° |
| 2026-04-21 01:45 | 35.41506 | 132.88818 | -1 ft | 7 kts | 62° |
| 2026-04-21 01:46 | 35.41540 | 132.88838 | -1 ft | 6 kts | 328° |
| 2026-04-21 01:46 | 35.41546 | 132.88834 | -1 ft | 0 kts | 329° |